Time;durP1;ratioP1;P1;durP2;ratioP2;P2;SDS_P1;SDS_P2;PMS_P1;PMS_P2;Temp;Humidity;BMP_temperature;BMP_pressure;BME280_temperature;BME280_humidity;BME280_pressure;Samples;Min_cycle;Max_cycle;Signal;HPM_P1;HPM_P2
2021/03/30 00:00:18;;;;;;;2.42;1.77;;;;;;;;;;5070655;28;20030;-56
2021/03/30 00:02:44;;;;;;;2.47;1.60;;;;;;;;;;5064421;28;20048;-56
2021/03/30 00:05:10;;;;;;;2.08;1.70;;;;;;;;;;5068833;28;20494;-56
2021/03/30 00:07:36;;;;;;;3.80;2.00;;;;;;;;;;5069636;28;20041;-57
2021/03/30 00:10:03;;;;;;;2.47;1.67;;;;;;;;;;5068592;28;20033;-57
2021/03/30 00:12:29;;;;;;;2.53;1.70;;;;;;;;;;5069148;28;20869;-56
2021/03/30 00:14:54;;;;;;;4.28;2.05;;;;;;;;;;5066653;28;20143;-56
2021/03/30 00:17:19;;;;;;;2.85;2.28;;;;;;;;;;5066594;28;20033;-56
2021/03/30 00:19:45;;;;;;;3.05;2.15;;;;;;;;;;5066063;28;20055;-57
2021/03/30 00:22:10;;;;;;;2.40;1.90;;;;;;;;;;5067726;28;20041;-56
2021/03/30 00:24:36;;;;;;;3.50;1.98;;;;;;;;;;5070176;28;20048;-57
2021/03/30 00:27:01;;;;;;;2.90;2.05;;;;;;;;;;5065101;28;20033;-57
2021/03/30 00:29:27;;;;;;;4.65;2.50;;;;;;;;;;5067125;28;20115;-57
2021/03/30 00:31:52;;;;;;;3.28;2.03;;;;;;;;;;5068271;28;20127;-57
2021/03/30 00:34:18;;;;;;;2.95;2.05;;;;;;;;;;5065991;28;20091;-57
2021/03/30 00:36:43;;;;;;;2.85;2.00;;;;;;;;;;5066889;28;20056;-56
2021/03/30 00:39:09;;;;;;;3.47;1.92;;;;;;;;;;5066531;28;20025;-57
2021/03/30 00:41:41;;;;;;;2.88;1.60;;;;;;;;;;5069917;28;20178;-57
2021/03/30 00:44:11;;;;;;;2.58;2.00;;;;;;;;;;5037713;28;20034;-57
2021/03/30 00:46:36;;;;;;;2.38;1.70;;;;;;;;;;5072393;28;20036;-56
2021/03/30 00:49:02;;;;;;;2.72;1.75;;;;;;;;;;5066925;28;20808;-57
2021/03/30 00:51:27;;;;;;;2.65;1.70;;;;;;;;;;5070083;28;20064;-56
2021/03/30 00:53:56;;;;;;;3.00;1.75;;;;;;;;;;5070722;28;20049;-57
2021/03/30 00:56:29;;;;;;;2.35;1.83;;;;;;;;;;5054915;28;20566;-57
2021/03/30 00:58:57;;;;;;;2.20;1.65;;;;;;;;;;5052722;28;20043;-57
2021/03/30 01:01:23;;;;;;;2.63;1.88;;;;;;;;;;5052798;28;20044;-57
2021/03/30 01:03:48;;;;;;;3.63;1.83;;;;;;;;;;5072236;28;20048;-56
2021/03/30 01:06:14;;;;;;;3.28;2.00;;;;;;;;;;5059569;28;20037;-56
2021/03/30 01:08:47;;;;;;;2.83;1.73;;;;;;;;;;5055210;28;20054;-57
2021/03/30 01:11:22;;;;;;;2.35;1.63;;;;;;;;;;5070220;28;20098;-56
2021/03/30 01:14:09;;;;;;;3.33;2.03;;;;;;;;;;5070495;28;20025;-57
2021/03/30 01:16:48;;;;;;;2.50;1.55;;;;;;;;;;5068166;28;20041;-57
2021/03/30 01:19:32;;;;;;;2.78;1.55;;;;;;;;;;5053357;28;20053;-57
2021/03/30 01:22:19;;;;;;;1.85;1.65;;;;;;;;;;5067134;28;20037;-57
2021/03/30 01:24:50;;;;;;;2.75;1.50;;;;;;;;;;5070221;28;20031;-56
2021/03/30 01:27:22;;;;;;;2.22;1.42;;;;;;;;;;5053990;28;20040;-57
2021/03/30 01:29:49;;;;;;;3.40;1.60;;;;;;;;;;5068049;28;20055;-57
2021/03/30 01:32:26;;;;;;;3.50;2.00;;;;;;;;;;5067877;28;20021;-56
2021/03/30 01:34:52;;;;;;;2.53;1.80;;;;;;;;;;5070916;28;21291;-56
2021/03/30 01:37:18;;;;;;;2.95;1.70;;;;;;;;;;5054536;28;20045;-56
2021/03/30 01:39:45;;;;;;;2.05;1.52;;;;;;;;;;5069014;28;20459;-57
2021/03/30 01:42:10;;;;;;;2.03;1.48;;;;;;;;;;5050087;28;20102;-57
2021/03/30 01:44:38;;;;;;;2.40;1.50;;;;;;;;;;5051085;28;20653;-57
2021/03/30 01:47:04;;;;;;;2.53;1.80;;;;;;;;;;5070074;28;20039;-56
2021/03/30 01:49:29;;;;;;;2.30;1.90;;;;;;;;;;5069327;28;20082;-56
2021/03/30 01:51:55;;;;;;;2.92;2.00;;;;;;;;;;5036362;28;20095;-57
2021/03/30 01:54:21;;;;;;;2.80;1.98;;;;;;;;;;5050257;28;20107;-56
2021/03/30 01:56:46;;;;;;;2.95;2.13;;;;;;;;;;5051529;28;20067;-56
2021/03/30 01:59:14;;;;;;;2.50;1.73;;;;;;;;;;5052234;28;20029;-57
2021/03/30 02:01:39;;;;;;;2.97;1.80;;;;;;;;;;5067213;28;20039;-57
2021/03/30 02:04:05;;;;;;;2.38;1.95;;;;;;;;;;5050412;28;20037;-56
2021/03/30 02:06:34;;;;;;;3.22;1.90;;;;;;;;;;5072575;28;20036;-56
2021/03/30 02:09:02;;;;;;;2.15;1.80;;;;;;;;;;5073948;28;20041;-57
2021/03/30 02:11:32;;;;;;;3.00;1.92;;;;;;;;;;5071590;28;20063;-57
2021/03/30 02:13:59;;;;;;;2.70;2.00;;;;;;;;;;5051908;28;20033;-57
2021/03/30 02:16:27;;;;;;;2.70;2.10;;;;;;;;;;5070114;28;20035;-57
2021/03/30 02:19:11;;;;;;;3.72;2.22;;;;;;;;;;5071041;28;20029;-57
2021/03/30 02:21:49;;;;;;;2.55;2.15;;;;;;;;;;5052094;28;20086;-56
2021/03/30 02:24:15;;;;;;;4.22;2.30;;;;;;;;;;5064605;28;20091;-57
2021/03/30 02:26:43;;;;;;;3.45;2.50;;;;;;;;;;5066456;28;20086;-57
2021/03/30 02:29:17;;;;;;;3.20;2.30;;;;;;;;;;5068539;28;20491;-56
2021/03/30 02:31:42;;;;;;;3.28;2.25;;;;;;;;;;5067526;28;20112;-57
2021/03/30 02:34:08;;;;;;;3.17;2.30;;;;;;;;;;5070491;28;20906;-57
2021/03/30 02:36:33;;;;;;;3.33;2.33;;;;;;;;;;5052165;28;20037;-57
2021/03/30 02:39:00;;;;;;;3.45;2.40;;;;;;;;;;5069169;28;20037;-57
2021/03/30 02:41:27;;;;;;;3.72;2.20;;;;;;;;;;5050076;28;20503;-57
2021/03/30 02:43:52;;;;;;;3.00;2.22;;;;;;;;;;5053979;28;20075;-56
2021/03/30 02:46:18;;;;;;;3.10;2.30;;;;;;;;;;5055500;28;20442;-57
2021/03/30 02:48:43;;;;;;;3.10;2.33;;;;;;;;;;5052286;28;20052;-58
2021/03/30 02:51:09;;;;;;;3.08;2.20;;;;;;;;;;5066824;28;20130;-56
2021/03/30 02:53:34;;;;;;;2.85;1.90;;;;;;;;;;5049460;28;20483;-56
2021/03/30 02:56:01;;;;;;;2.80;2.03;;;;;;;;;;5067742;28;20040;-57
2021/03/30 02:58:27;;;;;;;3.00;2.00;;;;;;;;;;5050950;28;20042;-57
2021/03/30 03:00:52;;;;;;;3.28;2.13;;;;;;;;;;5066992;28;20756;-57
2021/03/30 03:03:18;;;;;;;2.90;2.13;;;;;;;;;;5066774;28;20037;-56
2021/03/30 03:05:43;;;;;;;3.13;1.80;;;;;;;;;;5050147;28;20051;-57
2021/03/30 03:08:09;;;;;;;3.05;1.73;;;;;;;;;;5068507;28;20517;-57
2021/03/30 03:10:36;;;;;;;2.55;1.95;;;;;;;;;;5067993;28;20125;-56
2021/03/30 03:13:01;;;;;;;2.70;1.75;;;;;;;;;;5053473;28;20160;-56
2021/03/30 03:15:27;;;;;;;3.70;1.90;;;;;;;;;;5049837;28;20414;-57
2021/03/30 03:17:52;;;;;;;4.95;2.80;;;;;;;;;;5052001;28;20059;-58
2021/03/30 03:20:18;;;;;;;4.22;2.70;;;;;;;;;;5063880;28;20034;-58
2021/03/30 03:22:43;;;;;;;3.85;2.80;;;;;;;;;;5051626;28;20037;-57
2021/03/30 03:25:09;;;;;;;4.32;2.38;;;;;;;;;;5051551;28;20033;-57
2021/03/30 03:27:35;;;;;;;3.78;2.45;;;;;;;;;;5050737;28;20045;-57
2021/03/30 03:30:05;;;;;;;3.47;2.58;;;;;;;;;;5066931;28;20037;-57
2021/03/30 03:32:31;;;;;;;5.00;2.58;;;;;;;;;;5068696;28;20033;-59
2021/03/30 03:34:57;;;;;;;3.20;2.30;;;;;;;;;;5067114;28;20045;-57
2021/03/30 03:37:22;;;;;;;3.42;2.45;;;;;;;;;;5068592;28;20033;-56
2021/03/30 03:39:48;;;;;;;3.95;2.90;;;;;;;;;;5071487;28;20044;-57
2021/03/30 03:42:13;;;;;;;5.03;3.05;;;;;;;;;;5069321;28;20600;-56
2021/03/30 03:44:39;;;;;;;5.00;2.90;;;;;;;;;;5068151;28;20029;-56
2021/03/30 03:47:04;;;;;;;4.20;2.92;;;;;;;;;;5067777;28;20033;-56
2021/03/30 03:49:30;;;;;;;4.72;3.35;;;;;;;;;;5058058;28;20041;-56
2021/03/30 03:52:01;;;;;;;4.60;2.83;;;;;;;;;;5069746;28;20029;-57
2021/03/30 03:54:26;;;;;;;4.28;3.13;;;;;;;;;;5067119;28;20048;-56
2021/03/30 03:56:55;;;;;;;5.40;2.88;;;;;;;;;;5070016;28;20040;-57
2021/03/30 03:59:24;;;;;;;5.20;3.20;;;;;;;;;;5068144;28;20033;-58
2021/03/30 04:02:04;;;;;;;4.18;2.97;;;;;;;;;;5068298;28;20169;-57
2021/03/30 04:04:41;;;;;;;4.90;3.00;;;;;;;;;;5069141;28;20158;-57
2021/03/30 04:07:07;;;;;;;4.63;3.13;;;;;;;;;;5051334;28;20037;-57
2021/03/30 04:09:33;;;;;;;4.95;3.13;;;;;;;;;;5063886;28;20407;-57
2021/03/30 04:11:59;;;;;;;4.07;3.03;;;;;;;;;;5048873;28;20038;-57
2021/03/30 04:14:25;;;;;;;5.18;3.30;;;;;;;;;;5064985;28;20499;-58
2021/03/30 04:16:50;;;;;;;4.30;3.22;;;;;;;;;;5065863;28;20113;-56
2021/03/30 04:19:16;;;;;;;3.85;2.80;;;;;;;;;;5064291;28;20039;-56
2021/03/30 04:21:41;;;;;;;5.20;3.00;;;;;;;;;;5050128;28;20076;-57
2021/03/30 04:24:08;;;;;;;4.53;2.92;;;;;;;;;;5065901;28;20029;-57
2021/03/30 04:26:35;;;;;;;3.13;2.42;;;;;;;;;;5051576;28;20029;-56
2021/03/30 04:29:01;;;;;;;4.32;2.90;;;;;;;;;;5064584;28;20054;-55
2021/03/30 04:31:26;;;;;;;5.47;3.20;;;;;;;;;;5064946;28;20071;-55
2021/03/30 04:33:52;;;;;;;4.90;3.20;;;;;;;;;;5065006;28;20041;-55
2021/03/30 04:36:17;;;;;;;5.68;3.33;;;;;;;;;;5067056;28;20029;-56
2021/03/30 04:38:43;;;;;;;5.85;3.50;;;;;;;;;;5066025;28;20029;-57
2021/03/30 04:41:08;;;;;;;7.15;3.80;;;;;;;;;;5067020;28;20029;-56
2021/03/30 04:43:34;;;;;;;6.25;3.45;;;;;;;;;;5067231;28;20033;-56
2021/03/30 04:45:59;;;;;;;3.90;2.95;;;;;;;;;;5066039;28;20029;-56
2021/03/30 04:48:25;;;;;;;5.85;3.40;;;;;;;;;;5048564;28;20254;-56
2021/03/30 04:50:50;;;;;;;3.83;2.92;;;;;;;;;;5067715;28;20044;-55
2021/03/30 04:53:16;;;;;;;6.85;3.63;;;;;;;;;;5067506;28;20033;-56
2021/03/30 04:58:15;;;;;;;5.30;3.00;;;;;;;;;;4947586;28;20055;-57
2021/03/30 05:00:41;;;;;;;5.90;2.67;;;;;;;;;;4934736;28;20456;-57
2021/03/30 05:03:06;;;;;;;5.65;3.03;;;;;;;;;;4948453;28;20035;-54
2021/03/30 05:05:32;;;;;;;4.50;3.03;;;;;;;;;;4950396;28;20040;-58
2021/03/30 05:07:57;;;;;;;4.70;2.97;;;;;;;;;;4949683;28;20052;-57
2021/03/30 05:10:23;;;;;;;4.95;2.92;;;;;;;;;;4948350;28;20094;-56
2021/03/30 05:12:49;;;;;;;4.95;2.97;;;;;;;;;;4948819;28;20036;-56
2021/03/30 05:15:14;;;;;;;4.28;2.58;;;;;;;;;;4947790;28;20495;-57
2021/03/30 05:17:40;;;;;;;4.97;2.88;;;;;;;;;;4949253;28;20078;-57
2021/03/30 05:20:06;;;;;;;5.07;3.22;;;;;;;;;;4949626;28;20230;-57
2021/03/30 05:22:31;;;;;;;5.68;3.55;;;;;;;;;;4948457;28;20887;-57
2021/03/30 05:24:57;;;;;;;5.25;3.30;;;;;;;;;;4951133;28;20084;-57
2021/03/30 05:27:22;;;;;;;5.57;3.00;;;;;;;;;;4951017;28;20752;-57
2021/03/30 05:29:48;;;;;;;5.53;3.40;;;;;;;;;;4954199;28;20043;-56
2021/03/30 05:32:15;;;;;;;5.97;3.63;;;;;;;;;;4951789;28;20047;-56
2021/03/30 05:34:48;;;;;;;6.10;3.80;;;;;;;;;;4950757;28;20024;-57
2021/03/30 05:37:13;;;;;;;5.32;3.53;;;;;;;;;;4954544;28;20513;-57
2021/03/30 05:39:39;;;;;;;6.07;3.60;;;;;;;;;;4949941;28;20099;-56
2021/03/30 05:42:05;;;;;;;5.03;3.15;;;;;;;;;;4950715;28;20031;-57
2021/03/30 05:44:32;;;;;;;4.75;3.28;;;;;;;;;;4951213;28;20030;-57
2021/03/30 05:47:19;;;;;;;5.00;3.08;;;;;;;;;;4949097;28;20039;-57
2021/03/30 05:49:43;;;;;;;6.03;3.58;;;;;;;;;;4948453;28;20058;-56
2021/03/30 05:52:18;;;;;;;7.07;3.60;;;;;;;;;;4951160;28;20038;-56
2021/03/30 05:54:46;;;;;;;4.18;3.17;;;;;;;;;;4949729;28;20043;-56
2021/03/30 05:57:13;;;;;;;5.40;3.20;;;;;;;;;;4933761;28;20038;-57
2021/03/30 05:59:41;;;;;;;4.38;2.75;;;;;;;;;;4950609;28;20032;-57
2021/03/30 06:02:18;;;;;;;4.78;3.17;;;;;;;;;;4949641;28;20106;-57
2021/03/30 06:04:44;;;;;;;5.38;3.20;;;;;;;;;;4951320;28;20114;-57
2021/03/30 06:07:09;;;;;;;6.03;3.05;;;;;;;;;;4950100;28;20043;-57
2021/03/30 06:09:35;;;;;;;4.65;2.50;;;;;;;;;;4951308;28;20047;-57
2021/03/30 06:12:00;;;;;;;4.82;3.00;;;;;;;;;;4948956;28;20043;-57
2021/03/30 06:14:40;;;;;;;4.30;2.80;;;;;;;;;;4949370;28;20431;-58
2021/03/30 06:17:07;;;;;;;6.15;3.22;;;;;;;;;;4950665;28;21284;-57
2021/03/30 06:19:46;;;;;;;5.05;3.08;;;;;;;;;;4951165;28;20039;-57
2021/03/30 06:22:12;;;;;;;5.38;3.00;;;;;;;;;;4949783;28;20161;-57
2021/03/30 06:24:37;;;;;;;5.60;3.40;;;;;;;;;;4950988;28;20055;-55
2021/03/30 06:27:03;;;;;;;5.20;3.28;;;;;;;;;;4951267;28;20039;-57
2021/03/30 06:29:35;;;;;;;5.22;3.40;;;;;;;;;;4952322;28;20507;-56
2021/03/30 06:32:21;;;;;;;5.63;3.42;;;;;;;;;;4933996;28;20043;-56
2021/03/30 06:34:50;;;;;;;5.75;3.40;;;;;;;;;;4951757;28;21256;-57
2021/03/30 06:37:28;;;;;;;5.40;3.45;;;;;;;;;;4948945;28;20067;-57
2021/03/30 06:39:58;;;;;;;5.30;3.40;;;;;;;;;;4950393;28;20134;-57
2021/03/30 06:42:45;;;;;;;5.55;3.50;;;;;;;;;;4950534;28;20070;-58
2021/03/30 06:45:14;;;;;;;5.00;3.33;;;;;;;;;;4950261;28;20035;-56
2021/03/30 06:47:40;;;;;;;6.00;3.88;;;;;;;;;;4951067;28;20043;-57
2021/03/30 06:50:09;;;;;;;5.25;3.78;;;;;;;;;;4936429;28;20047;-56
2021/03/30 06:52:36;;;;;;;5.82;3.63;;;;;;;;;;4951813;28;20424;-57
2021/03/30 06:55:07;;;;;;;6.35;3.72;;;;;;;;;;4950014;28;20123;-55
2021/03/30 06:57:36;;;;;;;5.75;3.70;;;;;;;;;;4966852;28;20435;-56
2021/03/30 07:00:04;;;;;;;6.80;4.03;;;;;;;;;;4953499;28;20089;-56
2021/03/30 07:02:30;;;;;;;6.60;3.97;;;;;;;;;;4951867;28;20028;-58
2021/03/30 07:04:56;;;;;;;6.25;3.63;;;;;;;;;;4966904;28;20078;-59
2021/03/30 07:07:22;;;;;;;8.77;4.45;;;;;;;;;;4972617;28;20105;-58
2021/03/30 07:09:52;;;;;;;7.00;4.03;;;;;;;;;;4953972;28;20063;-56
2021/03/30 07:12:19;;;;;;;6.28;3.97;;;;;;;;;;4933310;28;20058;-57
2021/03/30 07:14:45;;;;;;;7.35;4.78;;;;;;;;;;4951927;28;20043;-56
2021/03/30 07:17:10;;;;;;;6.30;4.15;;;;;;;;;;4953971;28;20026;-57
2021/03/30 07:19:36;;;;;;;8.38;5.00;;;;;;;;;;4936960;28;20856;-56
2021/03/30 07:22:09;;;;;;;8.57;5.38;;;;;;;;;;4937976;28;20035;-57
2021/03/30 07:24:42;;;;;;;6.95;4.53;;;;;;;;;;4971090;28;20034;-56
2021/03/30 07:27:12;;;;;;;7.78;5.07;;;;;;;;;;4966276;28;20343;-57
2021/03/30 07:29:42;;;;;;;7.90;4.80;;;;;;;;;;4956216;28;20051;-57
2021/03/30 07:32:12;;;;;;;8.50;5.07;;;;;;;;;;4953993;28;20521;-56
2021/03/30 07:34:58;;;;;;;7.85;5.22;;;;;;;;;;4949656;28;20417;-57
2021/03/30 07:37:36;;;;;;;8.68;6.00;;;;;;;;;;4969440;28;20912;-57
2021/03/30 07:40:03;;;;;;;8.55;5.75;;;;;;;;;;4969993;28;20118;-57
2021/03/30 07:42:28;;;;;;;9.27;5.70;;;;;;;;;;4970389;28;20039;-56
2021/03/30 07:44:54;;;;;;;9.10;6.00;;;;;;;;;;4936332;28;20023;-57
2021/03/30 07:47:19;;;;;;;8.88;5.57;;;;;;;;;;4951292;28;20034;-58
2021/03/30 07:49:48;;;;;;;7.80;5.40;;;;;;;;;;4937795;28;20525;-56
2021/03/30 07:52:21;;;;;;;8.75;5.80;;;;;;;;;;4953874;28;20034;-57
2021/03/30 07:55:13;;;;;;;9.07;5.53;;;;;;;;;;4928040;28;20038;-57
2021/03/30 07:57:57;;;;;;;10.43;5.70;;;;;;;;;;4949256;28;20107;-57
2021/03/30 08:00:32;;;;;;;10.65;6.35;;;;;;;;;;4941821;28;20040;-57
2021/03/30 08:03:02;;;;;;;8.88;5.85;;;;;;;;;;4969355;28;20043;-57
2021/03/30 08:05:28;;;;;;;10.38;6.95;;;;;;;;;;4953505;28;20032;-56
2021/03/30 08:07:54;;;;;;;12.07;7.03;;;;;;;;;;4937680;28;20028;-58
2021/03/30 08:10:27;;;;;;;10.93;6.80;;;;;;;;;;4953703;28;20551;-57
2021/03/30 08:13:31;;;;;;;11.63;7.20;;;;;;;;;;4968865;28;20068;-56
2021/03/30 08:15:58;;;;;;;11.23;7.05;;;;;;;;;;4948133;28;20055;-55
2021/03/30 08:18:26;;;;;;;11.68;7.13;;;;;;;;;;4936495;28;20043;-55
2021/03/30 08:21:08;;;;;;;12.95;8.10;;;;;;;;;;4969477;28;20660;-55
2021/03/30 08:23:51;;;;;;;12.80;8.45;;;;;;;;;;4956230;28;20066;-56
2021/03/30 08:26:27;;;;;;;12.63;8.55;;;;;;;;;;4968363;28;20036;-55
2021/03/30 08:28:56;;;;;;;13.13;8.57;;;;;;;;;;4952910;28;21007;-56
2021/03/30 08:31:40;;;;;;;14.52;8.75;;;;;;;;;;4969408;28;20046;-56
2021/03/30 08:34:08;;;;;;;14.63;9.52;;;;;;;;;;4970205;28;20038;-55
2021/03/30 08:36:45;;;;;;;14.15;9.63;;;;;;;;;;4966757;28;20043;-57
2021/03/30 08:39:31;;;;;;;14.38;9.00;;;;;;;;;;4967246;28;20041;-57
2021/03/30 08:41:57;;;;;;;16.70;9.88;;;;;;;;;;4967459;28;20039;-55
2021/03/30 08:44:58;;;;;;;15.18;9.95;;;;;;;;;;4966336;28;20437;-52
2021/03/30 08:47:31;;;;;;;16.58;10.27;;;;;;;;;;4966287;28;20050;-56
2021/03/30 08:50:13;;;;;;;16.13;10.48;;;;;;;;;;4964215;28;20043;-56
2021/03/30 08:52:38;;;;;;;14.63;10.55;;;;;;;;;;4964998;28;20117;-57
2021/03/30 08:55:05;;;;;;;10.48;2.55;;;;;;;;;;4950293;28;20042;-54
2021/03/30 08:57:33;;;;;;;17.33;11.38;;;;;;;;;;4950291;28;20103;-54
2021/03/30 09:00:07;;;;;;;17.45;11.27;;;;;;;;;;4952900;28;20047;-55
2021/03/30 09:02:33;;;;;;;17.27;11.50;;;;;;;;;;4972157;28;20031;-56
2021/03/30 09:04:59;;;;;;;17.73;11.45;;;;;;;;;;4926305;28;20035;-54
2021/03/30 09:07:24;;;;;;;16.60;10.80;;;;;;;;;;4952806;28;20078;-55
2021/03/30 09:09:50;;;;;;;15.40;10.38;;;;;;;;;;4952893;28;20067;-52
2021/03/30 09:12:15;;;;;;;15.73;10.35;;;;;;;;;;4973237;28;20089;-55
2021/03/30 09:14:41;;;;;;;14.60;9.95;;;;;;;;;;4967615;28;20040;-51
2021/03/30 09:17:08;;;;;;;14.57;10.13;;;;;;;;;;4971207;28;20714;-52
2021/03/30 09:19:44;;;;;;;16.25;10.65;;;;;;;;;;4954759;28;20123;-54
2021/03/30 09:22:18;;;;;;;15.95;10.00;;;;;;;;;;4940202;28;20046;-55
2021/03/30 09:27:27;;;;;;;15.25;10.00;;;;;;;;;;4972463;28;20039;-55
2021/03/30 09:29:53;;;;;;;14.55;9.90;;;;;;;;;;4969160;28;20043;-54
2021/03/30 09:32:19;;;;;;;15.95;10.50;;;;;;;;;;4953386;28;20043;-55
2021/03/30 09:34:45;;;;;;;14.48;9.63;;;;;;;;;;4939025;28;20050;-55
2021/03/30 09:37:10;;;;;;;14.32;9.60;;;;;;;;;;4969308;28;20039;-55
2021/03/30 09:39:36;;;;;;;15.32;10.18;;;;;;;;;;4970389;28;20095;-54
2021/03/30 09:42:02;;;;;;;14.82;9.95;;;;;;;;;;4940447;28;20058;-55
2021/03/30 09:44:33;;;;;;;14.25;9.30;;;;;;;;;;4972092;28;20074;-55
2021/03/30 09:46:59;;;;;;;14.30;9.52;;;;;;;;;;4952942;28;20038;-53
2021/03/30 09:49:24;;;;;;;13.90;9.30;;;;;;;;;;4972407;28;20509;-56
2021/03/30 09:51:51;;;;;;;14.45;9.68;;;;;;;;;;4938631;28;20086;-55
2021/03/30 09:54:25;;;;;;;13.95;8.82;;;;;;;;;;4955312;28;20113;-55
2021/03/30 09:56:57;;;;;;;14.95;9.65;;;;;;;;;;4969878;28;20038;-53
2021/03/30 09:59:22;;;;;;;14.70;9.57;;;;;;;;;;4957180;28;20065;-52
2021/03/30 10:01:48;;;;;;;14.40;9.60;;;;;;;;;;4952961;28;20071;-54
2021/03/30 10:04:14;;;;;;;14.98;9.95;;;;;;;;;;4973235;28;20091;-53
2021/03/30 10:06:39;;;;;;;14.82;9.52;;;;;;;;;;4971285;28;20031;-52
2021/03/30 10:09:06;;;;;;;14.30;9.38;;;;;;;;;;4952664;28;20447;-53
2021/03/30 10:11:31;;;;;;;16.15;10.10;;;;;;;;;;4955602;28;20047;-52
2021/03/30 10:14:18;;;;;;;15.18;9.80;;;;;;;;;;4951835;28;20039;-53
2021/03/30 10:16:44;;;;;;;13.02;8.82;;;;;;;;;;4938760;28;20042;-54
2021/03/30 10:19:12;;;;;;;14.45;9.52;;;;;;;;;;4939637;28;20046;-53
2021/03/30 10:21:37;;;;;;;14.73;9.57;;;;;;;;;;4953056;28;20055;-52
2021/03/30 10:24:11;;;;;;;13.20;8.57;;;;;;;;;;4952214;28;20035;-54
2021/03/30 10:26:36;;;;;;;14.57;9.15;;;;;;;;;;4952702;28;20111;-52
2021/03/30 10:29:08;;;;;;;14.05;8.93;;;;;;;;;;4967668;28;20050;-51
2021/03/30 10:31:49;;;;;;;13.55;8.30;;;;;;;;;;4971255;28;20073;-53
2021/03/30 10:34:29;;;;;;;13.25;8.63;;;;;;;;;;4966922;28;20033;-51
2021/03/30 10:36:56;;;;;;;14.93;8.57;;;;;;;;;;4969455;28;20035;-51
2021/03/30 10:39:29;;;;;;;12.27;7.90;;;;;;;;;;4969807;28;20047;-54
2021/03/30 10:42:10;;;;;;;12.50;8.07;;;;;;;;;;4950159;28;20113;-56
2021/03/30 10:44:57;;;;;;;14.02;8.63;;;;;;;;;;4971913;28;20063;-53
2021/03/30 10:47:30;;;;;;;12.45;7.88;;;;;;;;;;4955885;28;20146;-53
2021/03/30 10:49:56;;;;;;;14.23;8.82;;;;;;;;;;4953177;28;20039;-54
2021/03/30 10:52:25;;;;;;;13.95;8.23;;;;;;;;;;4971545;28;20023;-53
2021/03/30 10:54:51;;;;;;;13.40;8.88;;;;;;;;;;4970000;28;20046;-54
2021/03/30 10:57:21;;;;;;;14.40;9.18;;;;;;;;;;4956245;28;20043;-54
2021/03/30 10:59:47;;;;;;;13.57;8.27;;;;;;;;;;4954795;28;20895;-52
2021/03/30 11:02:13;;;;;;;13.07;8.65;;;;;;;;;;4968852;28;20035;-52
2021/03/30 11:04:39;;;;;;;14.35;9.25;;;;;;;;;;4938377;28;20050;-55
2021/03/30 11:07:05;;;;;;;15.15;9.02;;;;;;;;;;4938433;28;20097;-53
2021/03/30 11:09:31;;;;;;;10.82;6.13;;;;;;;;;;4936630;28;20098;-52
2021/03/30 11:11:56;;;;;;;12.02;7.32;;;;;;;;;;4969769;28;20125;-55
2021/03/30 11:14:22;;;;;;;11.32;7.00;;;;;;;;;;4968736;28;20038;-51
2021/03/30 11:16:48;;;;;;;13.20;7.80;;;;;;;;;;4952749;28;20482;-52
2021/03/30 11:19:14;;;;;;;11.68;7.22;;;;;;;;;;4968395;28;20035;-54
2021/03/30 11:21:40;;;;;;;13.10;7.65;;;;;;;;;;4970621;28;20038;-55
2021/03/30 11:24:06;;;;;;;11.90;7.38;;;;;;;;;;4966685;28;20038;-55
2021/03/30 11:26:32;;;;;;;12.88;7.55;;;;;;;;;;4969706;28;20848;-53
2021/03/30 11:29:00;;;;;;;13.32;8.13;;;;;;;;;;4950408;28;20095;-54
2021/03/30 11:34:10;;;;;;;12.43;7.90;;;;;;;;;;4965051;28;20070;-51
2021/03/30 11:36:41;;;;;;;10.93;6.75;;;;;;;;;;4969465;28;20027;-54
2021/03/30 11:39:07;;;;;;;10.27;6.07;;;;;;;;;;4952889;28;20120;-51
2021/03/30 11:41:32;;;;;;;11.05;6.63;;;;;;;;;;4969902;28;20604;-51
2021/03/30 11:43:58;;;;;;;10.35;5.97;;;;;;;;;;4967278;28;20039;-54
2021/03/30 11:46:24;;;;;;;10.23;5.90;;;;;;;;;;4951997;28;20083;-54
2021/03/30 11:48:49;;;;;;;9.05;5.63;;;;;;;;;;4952562;28;20102;-54
2021/03/30 11:51:15;;;;;;;11.98;6.18;;;;;;;;;;4952521;28;20510;-52
2021/03/30 11:53:44;;;;;;;11.05;6.60;;;;;;;;;;4966021;28;20030;-54
2021/03/30 11:56:09;;;;;;;9.90;5.63;;;;;;;;;;4966511;28;20082;-54
2021/03/30 11:58:36;;;;;;;9.70;5.50;;;;;;;;;;4966818;28;20039;-54
2021/03/30 12:01:01;;;;;;;9.77;5.30;;;;;;;;;;4934096;28;20138;-56
2021/03/30 12:03:27;;;;;;;9.90;5.63;;;;;;;;;;4970757;28;20398;-55
2021/03/30 12:05:52;;;;;;;9.85;5.43;;;;;;;;;;4966445;28;20043;-52
2021/03/30 12:08:18;;;;;;;10.27;5.25;;;;;;;;;;4936721;28;20043;-55
2021/03/30 12:10:43;;;;;;;8.63;4.90;;;;;;;;;;4968164;28;20547;-55
2021/03/30 12:13:09;;;;;;;9.27;5.32;;;;;;;;;;4969766;28;20036;-56
2021/03/30 12:15:35;;;;;;;9.40;5.03;;;;;;;;;;4970660;28;20054;-55
2021/03/30 12:18:00;;;;;;;9.98;5.15;;;;;;;;;;4969602;28;20490;-54
2021/03/30 12:20:26;;;;;;;8.25;4.57;;;;;;;;;;4968091;28;20043;-55
2021/03/30 12:22:51;;;;;;;9.38;5.45;;;;;;;;;;4956763;28;20035;-52
2021/03/30 12:25:17;;;;;;;8.70;5.03;;;;;;;;;;4968603;28;20094;-54
2021/03/30 12:27:42;;;;;;;9.88;5.30;;;;;;;;;;4950769;28;20039;-54
2021/03/30 12:30:08;;;;;;;9.50;4.88;;;;;;;;;;4969671;28;20044;-58
2021/03/30 12:32:33;;;;;;;10.02;4.80;;;;;;;;;;4952956;28;20036;-51
2021/03/30 12:34:59;;;;;;;7.97;4.43;;;;;;;;;;4970067;28;20482;-51
2021/03/30 12:37:25;;;;;;;8.48;4.70;;;;;;;;;;4970698;28;20039;-51
2021/03/30 12:39:50;;;;;;;9.45;4.60;;;;;;;;;;4973061;28;20043;-51
2021/03/30 12:42:16;;;;;;;8.20;4.60;;;;;;;;;;4971548;28;20037;-52
2021/03/30 12:44:41;;;;;;;9.70;4.85;;;;;;;;;;4954893;28;20044;-53
2021/03/30 12:47:07;;;;;;;8.27;4.70;;;;;;;;;;4970632;28;20052;-54
2021/03/30 12:49:32;;;;;;;7.85;4.43;;;;;;;;;;4970352;28;20386;-54
2021/03/30 12:51:58;;;;;;;8.35;4.10;;;;;;;;;;4954261;28;20671;-54
2021/03/30 12:54:23;;;;;;;6.30;3.05;;;;;;;;;;4926587;28;20090;-55
2021/03/30 12:56:49;;;;;;;5.50;2.95;;;;;;;;;;4941889;28;20077;-53
2021/03/30 12:59:14;;;;;;;5.78;2.72;;;;;;;;;;4972597;28;20783;-55
2021/03/30 13:01:40;;;;;;;5.25;2.90;;;;;;;;;;4926676;28;20038;-54
2021/03/30 13:04:06;;;;;;;4.70;2.72;;;;;;;;;;4956274;28;20051;-54
2021/03/30 13:06:31;;;;;;;3.30;2.00;;;;;;;;;;4971371;28;20520;-54
2021/03/30 13:08:57;;;;;;;5.00;2.80;;;;;;;;;;4954033;28;20397;-54
2021/03/30 13:11:24;;;;;;;5.70;3.15;;;;;;;;;;4973084;28;20090;-52
2021/03/30 13:13:49;;;;;;;7.28;3.45;;;;;;;;;;4956649;28;20446;-53
2021/03/30 13:16:14;;;;;;;6.97;4.25;;;;;;;;;;4938669;28;20032;-51
2021/03/30 13:18:40;;;;;;;8.52;4.72;;;;;;;;;;4954806;28;20045;-54
2021/03/30 13:21:08;;;;;;;8.93;5.07;;;;;;;;;;4971601;28;20058;-52
2021/03/30 13:23:33;;;;;;;8.82;4.43;;;;;;;;;;4956737;28;20050;-53
2021/03/30 13:25:59;;;;;;;8.95;5.20;;;;;;;;;;4969853;28;20042;-54
2021/03/30 13:28:24;;;;;;;6.35;3.55;;;;;;;;;;4954917;28;20568;-55
2021/03/30 13:30:50;;;;;;;5.50;2.95;;;;;;;;;;4969549;28;20045;-54
2021/03/30 13:33:15;;;;;;;6.93;4.18;;;;;;;;;;4951747;28;20414;-54
2021/03/30 13:35:41;;;;;;;7.82;4.28;;;;;;;;;;4972412;28;20041;-55
2021/03/30 13:38:06;;;;;;;6.30;3.58;;;;;;;;;;4969984;28;20091;-54
2021/03/30 13:40:32;;;;;;;7.20;4.00;;;;;;;;;;4970674;28;20101;-55
2021/03/30 13:42:58;;;;;;;6.03;3.45;;;;;;;;;;4956047;28;20507;-54
2021/03/30 13:45:25;;;;;;;6.35;3.40;;;;;;;;;;4969006;28;20070;-53
2021/03/30 13:47:51;;;;;;;5.47;3.03;;;;;;;;;;4954190;28;20040;-52
2021/03/30 13:50:17;;;;;;;6.68;3.75;;;;;;;;;;4969862;28;20522;-55
2021/03/30 13:52:43;;;;;;;6.57;3.45;;;;;;;;;;4956078;28;20042;-53
2021/03/30 13:55:09;;;;;;;5.97;3.58;;;;;;;;;;4953527;28;20039;-53
2021/03/30 13:57:34;;;;;;;6.20;3.72;;;;;;;;;;4953166;28;20048;-55
2021/03/30 14:00:00;;;;;;;5.35;3.35;;;;;;;;;;4941091;28;20039;-54
2021/03/30 14:02:25;;;;;;;6.38;3.40;;;;;;;;;;4953043;28;20039;-53
2021/03/30 14:04:51;;;;;;;6.22;3.13;;;;;;;;;;4969370;28;20110;-52
2021/03/30 14:07:16;;;;;;;4.97;2.85;;;;;;;;;;4972593;28;20032;-52
2021/03/30 14:09:42;;;;;;;5.15;2.72;;;;;;;;;;4966853;28;20085;-54
2021/03/30 14:12:11;;;;;;;5.07;2.75;;;;;;;;;;4953372;28;20039;-52
2021/03/30 14:14:45;;;;;;;6.13;2.97;;;;;;;;;;4956988;28;20035;-55
2021/03/30 14:17:27;;;;;;;5.40;2.90;;;;;;;;;;4954684;28;20043;-53
2021/03/30 14:19:57;;;;;;;4.20;2.42;;;;;;;;;;4971187;28;20039;-55
2021/03/30 14:22:30;;;;;;;4.63;2.20;;;;;;;;;;4971644;28;20122;-56
2021/03/30 14:25:05;;;;;;;5.07;2.78;;;;;;;;;;4954796;28;20047;-54
2021/03/30 14:27:31;;;;;;;4.88;2.50;;;;;;;;;;4970359;28;20039;-54
2021/03/30 14:29:56;;;;;;;4.88;2.40;;;;;;;;;;4950459;28;20047;-53
2021/03/30 14:32:24;;;;;;;4.97;2.75;;;;;;;;;;4970925;28;20062;-53
2021/03/30 14:34:51;;;;;;;4.85;2.50;;;;;;;;;;4952390;28;20046;-53
2021/03/30 14:37:18;;;;;;;4.80;2.67;;;;;;;;;;4951761;28;20095;-55
2021/03/30 14:39:44;;;;;;;5.05;2.65;;;;;;;;;;4971096;28;20035;-55
2021/03/30 14:42:13;;;;;;;3.97;2.25;;;;;;;;;;4939246;28;20031;-54
2021/03/30 14:53:20;;;;;;;5.20;2.67;;;;;;;;;;4967745;28;20443;-53
2021/03/30 14:57:58;;;;;;;4.65;2.60;;;;;;;;;;4952855;28;20098;-52
2021/03/30 15:03:09;;;;;;;4.30;2.45;;;;;;;;;;4951431;28;20111;-54
2021/03/30 15:05:35;;;;;;;4.30;2.50;;;;;;;;;;4967419;28;20466;-55